createdAt,value
2018-12-28T00:01:39.868Z,-0.80
2018-12-28T00:06:35.650Z,-0.80
2018-12-28T00:11:31.494Z,-0.80
2018-12-28T00:16:27.359Z,-0.80
2018-12-28T00:21:23.149Z,-0.80
2018-12-28T00:26:18.939Z,-0.90
2018-12-28T00:31:14.739Z,-0.90
2018-12-28T00:36:10.507Z,-0.90
2018-12-28T00:41:06.544Z,-1.00
2018-12-28T00:46:02.315Z,-0.90
2018-12-28T00:50:58.099Z,-1.00
2018-12-28T00:55:53.874Z,-1.10
2018-12-28T01:00:49.690Z,-1.10
2018-12-28T01:05:45.487Z,-1.10
2018-12-28T01:10:41.271Z,-1.10
2018-12-28T01:15:37.087Z,-1.10
2018-12-28T01:20:32.993Z,-1.10
2018-12-28T01:25:28.766Z,-1.00
2018-12-28T01:30:24.585Z,-1.00
2018-12-28T01:35:20.485Z,-0.90
2018-12-28T01:40:16.394Z,-0.90
2018-12-28T01:45:12.199Z,-0.90
2018-12-28T01:50:07.991Z,-0.90
2018-12-28T01:55:03.803Z,-0.90
2018-12-28T01:59:59.578Z,-0.80
2018-12-28T02:04:55.355Z,-0.80
2018-12-28T02:09:52.100Z,-0.80
2018-12-28T02:14:47.856Z,-0.80
2018-12-28T02:19:43.643Z,-0.80
2018-12-28T02:24:39.435Z,-0.80
2018-12-28T02:29:35.249Z,-0.80
2018-12-28T02:34:31.140Z,-0.80
2018-12-28T02:39:26.920Z,-0.80
2018-12-28T02:44:23.124Z,-0.80
2018-12-28T02:49:19.350Z,-0.80
2018-12-28T02:54:15.158Z,-0.80
2018-12-28T02:59:10.956Z,-0.80
2018-12-28T03:04:06.751Z,-0.80
2018-12-28T03:09:02.521Z,-0.70
2018-12-28T03:13:58.386Z,-0.70
2018-12-28T03:18:54.230Z,-0.70
2018-12-28T03:23:50.062Z,-0.70
2018-12-28T03:28:45.835Z,-0.70
2018-12-28T03:33:41.616Z,-0.60
2018-12-28T03:38:37.400Z,-0.60
2018-12-28T03:43:33.187Z,-0.70
2018-12-28T03:48:28.980Z,-0.60
2018-12-28T03:53:24.804Z,-0.60
2018-12-28T03:58:20.615Z,-0.60
2018-12-28T04:03:16.433Z,-0.50
2018-12-28T04:08:12.283Z,-0.50
2018-12-28T04:13:08.036Z,-0.40
2018-12-28T04:18:04.795Z,-0.40
2018-12-28T04:23:00.575Z,-0.40
2018-12-28T04:27:56.349Z,-0.30
2018-12-28T04:32:52.093Z,-0.40
2018-12-28T04:37:47.846Z,-0.40
2018-12-28T04:42:43.685Z,-0.40
2018-12-28T04:47:39.477Z,-0.30
2018-12-28T04:52:35.799Z,-0.30
2018-12-28T04:57:33.172Z,-0.30
2018-12-28T05:02:58.201Z,-0.30
2018-12-28T05:08:43.483Z,-0.20
2018-12-28T05:13:59.005Z,-0.20
2018-12-28T05:19:33.455Z,-0.30
2018-12-28T05:24:55.016Z,-0.20
2018-12-28T05:30:25.671Z,-0.20
2018-12-28T05:35:21.454Z,-0.20
2018-12-28T05:40:25.607Z,-0.20
2018-12-28T05:45:14.736Z,-0.20
2018-12-28T05:50:10.511Z,-0.20
2018-12-28T05:55:06.485Z,-0.20
2018-12-28T06:00:02.266Z,-0.20
2018-12-28T06:04:59.622Z,-0.10
2018-12-28T06:09:55.423Z,-0.10
2018-12-28T06:14:51.230Z,-0.10
2018-12-28T06:19:47.073Z,-0.10
2018-12-28T06:24:42.847Z,-0.10
2018-12-28T06:29:38.646Z,-0.10
2018-12-28T06:34:34.453Z,-0.10
2018-12-28T06:39:30.266Z,-0.10
2018-12-28T06:44:26.182Z,-0.10
2018-12-28T06:49:22.363Z,0.00
2018-12-28T06:55:01.896Z,0.00
2018-12-28T07:00:33.285Z,0.10
2018-12-28T07:06:04.655Z,0.00
2018-12-28T07:11:55.699Z,0.00
2018-12-28T07:17:33.651Z,0.10
2018-12-28T07:23:25.403Z,0.10
2018-12-28T07:28:57.566Z,0.10
2018-12-28T07:34:36.974Z,0.20
2018-12-28T07:40:21.735Z,0.20
2018-12-28T07:45:54.411Z,0.30
2018-12-28T07:51:31.159Z,0.30
2018-12-28T07:56:40.698Z,0.40
2018-12-28T08:02:13.452Z,0.40
2018-12-28T08:07:59.279Z,0.40
2018-12-28T08:13:33.158Z,0.50
2018-12-28T08:19:15.013Z,0.60
2018-12-28T08:25:18.754Z,0.70
2018-12-28T08:30:41.203Z,0.70
2018-12-28T08:36:26.851Z,0.80
2018-12-28T08:42:37.626Z,0.90
2018-12-28T08:48:40.909Z,1.00
2018-12-28T08:54:38.806Z,1.20
2018-12-28T09:00:32.731Z,1.30
2018-12-28T09:06:33.303Z,1.30
2018-12-28T09:12:25.765Z,1.40
2018-12-28T09:18:27.773Z,1.40
2018-12-28T09:24:21.616Z,1.60
2018-12-28T09:30:22.735Z,1.80
2018-12-28T09:36:25.439Z,1.90
2018-12-28T09:42:39.776Z,2.10
2018-12-28T09:48:18.787Z,2.30
2018-12-28T09:54:18.878Z,2.50
2018-12-28T10:06:08.605Z,2.70
2018-12-28T10:12:05.097Z,2.70
2018-12-28T10:17:36.651Z,2.80
2018-12-28T10:23:19.149Z,3.00
2018-12-28T10:28:58.648Z,3.30
2018-12-28T10:34:46.396Z,3.60
2018-12-28T10:40:27.955Z,3.80
2018-12-28T10:46:15.992Z,3.90
2018-12-28T10:52:00.238Z,4.10
2018-12-28T10:57:42.945Z,4.30
2018-12-28T11:03:07.736Z,4.40
2018-12-28T11:08:54.892Z,4.60
2018-12-28T11:14:35.843Z,5.10
2018-12-28T11:20:11.717Z,5.40
2018-12-28T11:25:47.881Z,5.40
2018-12-28T11:31:34.144Z,5.60
2018-12-28T11:37:12.671Z,6.30
2018-12-28T11:43:05.955Z,7.50
2018-12-28T11:48:37.160Z,8.60
2018-12-28T11:54:05.354Z,9.40
2018-12-28T11:59:37.167Z,10.20
2018-12-28T12:05:16.060Z,11.00
2018-12-28T12:10:59.620Z,11.30
2018-12-28T12:16:23.239Z,11.80
2018-12-28T12:21:57.922Z,12.40
2018-12-28T12:27:14.791Z,12.90
2018-12-28T12:32:54.390Z,13.60
2018-12-28T12:38:02.036Z,14.20
2018-12-28T12:43:05.146Z,14.60
2018-12-28T12:48:44.678Z,14.60
2018-12-28T12:53:36.919Z,14.60
2018-12-28T12:58:32.646Z,14.40
2018-12-28T13:03:28.401Z,14.40
2018-12-28T13:08:24.172Z,15.20
2018-12-28T13:13:19.890Z,16.80
2018-12-28T13:18:16.027Z,17.80
2018-12-28T13:23:11.770Z,18.50
2018-12-28T13:28:07.506Z,18.40
2018-12-28T13:33:03.312Z,18.60
2018-12-28T13:37:58.987Z,18.70
2018-12-28T13:42:54.774Z,16.80
2018-12-28T13:47:50.927Z,13.80
2018-12-28T13:52:47.027Z,12.90
2018-12-28T13:57:42.846Z,12.20
2018-12-28T14:02:39.581Z,11.30
2018-12-28T14:07:35.318Z,10.60
2018-12-28T14:12:31.092Z,10.20
2018-12-28T14:17:26.865Z,9.70
2018-12-28T14:22:22.662Z,9.20
2018-12-28T14:27:18.497Z,9.00
2018-12-28T14:32:14.332Z,8.90
2018-12-28T14:37:30.956Z,8.50
2018-12-28T14:42:26.689Z,8.20
2018-12-28T14:47:23.541Z,7.80
2018-12-28T14:52:19.279Z,7.50
2018-12-28T14:57:15.036Z,7.30
2018-12-28T15:02:10.962Z,7.20
2018-12-28T15:07:06.726Z,6.90
2018-12-28T15:12:02.900Z,6.80
2018-12-28T15:16:59.678Z,6.60
2018-12-28T15:21:55.416Z,6.40
2018-12-28T15:26:51.231Z,6.20
2018-12-28T15:31:47.390Z,5.90
2018-12-28T15:36:43.543Z,5.80
2018-12-28T15:41:39.926Z,5.60
2018-12-28T15:46:36.500Z,5.40
2018-12-28T15:51:51.423Z,5.30
2018-12-28T15:56:47.358Z,5.20
2018-12-28T16:01:43.195Z,5.10
2018-12-28T16:06:40.163Z,4.90
2018-12-28T16:11:35.953Z,4.70
2018-12-28T16:16:31.727Z,4.40
2018-12-28T16:21:27.562Z,4.20
2018-12-28T16:26:23.424Z,4.00
2018-12-28T16:31:19.338Z,3.80
2018-12-28T16:36:15.090Z,3.70
2018-12-28T16:41:10.884Z,3.50
2018-12-28T16:46:06.639Z,3.40
2018-12-28T16:51:02.419Z,3.40
2018-12-28T16:55:58.139Z,3.20
2018-12-28T17:00:53.988Z,3.00
2018-12-28T17:05:49.801Z,2.90
2018-12-28T17:10:45.555Z,2.80
2018-12-28T17:15:42.277Z,2.70
2018-12-28T17:20:38.202Z,2.50
2018-12-28T17:25:45.197Z,2.30
2018-12-28T17:30:41.485Z,2.20
2018-12-28T17:35:37.265Z,2.10
2018-12-28T17:40:40.166Z,2.00
2018-12-28T17:45:30.513Z,1.90
2018-12-28T17:50:27.760Z,1.80
2018-12-28T17:55:24.083Z,1.70
2018-12-28T18:00:20.371Z,1.60
2018-12-28T18:05:16.394Z,1.60
2018-12-28T18:10:13.693Z,1.50
2018-12-28T18:15:11.689Z,1.20
2018-12-28T18:20:08.365Z,1.10
2018-12-28T18:25:05.088Z,1.00
2018-12-28T18:30:01.024Z,1.00
2018-12-28T18:34:56.858Z,0.90
2018-12-28T18:39:52.908Z,0.80
2018-12-28T18:44:48.836Z,0.70
2018-12-28T18:49:45.075Z,0.70
2018-12-28T18:54:41.306Z,0.70
2018-12-28T18:59:38.295Z,0.70
2018-12-28T19:04:34.091Z,0.60
2018-12-28T19:09:29.930Z,0.50
2018-12-28T19:14:25.743Z,0.40
2018-12-28T19:19:21.563Z,0.30
2018-12-28T19:24:17.346Z,0.30
2018-12-28T19:29:13.121Z,0.20
2018-12-28T19:34:10.234Z,0.10
2018-12-28T19:39:08.467Z,0.10
2018-12-28T19:44:04.269Z,0.10
2018-12-28T19:49:01.327Z,0.10
2018-12-28T19:53:57.114Z,0.10
2018-12-28T19:58:52.895Z,0.10
2018-12-28T20:03:48.695Z,-0.10
2018-12-28T20:08:44.463Z,-0.10
2018-12-28T20:13:41.070Z,-0.20
2018-12-28T20:18:37.151Z,-0.30
2018-12-28T20:23:33.310Z,-0.30
2018-12-28T20:28:29.173Z,-0.30
2018-12-28T20:33:25.040Z,-0.50
2018-12-28T20:38:20.754Z,-0.50
2018-12-28T20:43:16.534Z,-0.60
2018-12-28T20:48:12.278Z,-0.60
2018-12-28T20:53:08.251Z,-0.70
2018-12-28T20:58:04.050Z,-0.80
2018-12-28T21:02:59.782Z,-0.90
2018-12-28T21:07:55.662Z,-0.90
2018-12-28T21:12:51.631Z,-0.90
2018-12-28T21:17:48.368Z,-1.00
2018-12-28T21:22:45.319Z,-0.90
2018-12-28T21:27:42.238Z,-0.90
2018-12-28T21:32:39.116Z,-0.90
2018-12-28T21:37:34.830Z,-1.00
2018-12-28T21:42:30.565Z,-1.00
2018-12-28T21:47:26.329Z,-1.10
2018-12-28T21:52:22.057Z,-1.10
2018-12-28T21:57:17.784Z,-1.20
2018-12-28T22:02:13.514Z,-1.30
2018-12-28T22:07:09.273Z,-1.30
2018-12-28T22:12:04.988Z,-1.30
2018-12-28T22:17:00.765Z,-1.20
2018-12-28T22:21:56.497Z,-1.20
2018-12-28T22:26:52.221Z,-1.30
2018-12-28T22:31:47.955Z,-1.30
2018-12-28T22:36:43.807Z,-1.30
2018-12-28T22:41:39.666Z,-1.40
2018-12-28T22:46:35.484Z,-1.50
2018-12-28T22:51:31.278Z,-1.50
2018-12-28T22:56:27.035Z,-1.60
2018-12-28T23:01:23.143Z,-1.60
2018-12-28T23:06:18.893Z,-1.70
2018-12-28T23:11:14.727Z,-1.60
2018-12-28T23:16:10.457Z,-1.70
2018-12-28T23:21:06.183Z,-1.80
2018-12-28T23:26:01.918Z,-1.80
2018-12-28T23:30:59.265Z,-1.80
2018-12-28T23:35:55.101Z,-1.80
2018-12-28T23:40:52.208Z,-1.80
2018-12-28T23:45:48.102Z,-1.80
2018-12-28T23:50:43.840Z,-1.80
2018-12-28T23:55:39.553Z,-1.80
